»·PEaware :: N556PW KSBP-KCMA

N556PW :: KSBP-KCMA

FLIGHT INFORMATION

Flight Status: Arrived
Operator: Privately registered:
United States
More flights under this callsign
Pilot: Daniel C. (20093)
Aircraft: CESSNA 172 SKYHAWK
(C172)
More flights by this aircraft type
Origin: KSBP San Luis Co Regl
United States
Destination: KCMA Camarillo
United States
More flights between these airports :: More routes between these airports
Route: MQO GVO RZS
File this flight plan on PilotEdge
Remarks: KOXR
Altitude:
(Current/Filed)
7,500ft
Speed:
(Current/Filed)
110kts
Departed: 08-Sep-18 09:32 AM
Arrived: 08-Sep-18 10:46 AM
Distance/Time
Traveled:
98nm/1:14
Distance/Time
To Go:
Arrived

Flight Plot

Page will automatically refresh every two minutes.

Flight plan parsing failed; only flown route is shown


Map Options




Map Legend


Flown Route
Filed Route
Departure Airport
Arrival Airport
Navaid (VOR, NDB)
Fix

Horizontal Profiles

Position Reports

Time Latitude Longitude Heading Altitude Ground
Speed
08-Sep-18 09:26 35.238922 -120.639406 180 184ft 0kts
08-Sep-18 09:27 35.238922 -120.639406 180 184ft 0kts
08-Sep-18 09:28 35.238922 -120.639406 180 184ft 0kts
08-Sep-18 09:29 35.237865 -120.639472 165 184ft 12kts
08-Sep-18 09:30 35.234853 -120.634507 124 184ft 22kts
08-Sep-18 09:31 35.233265 -120.631941 290 184ft 0kts
08-Sep-18 09:32 35.233247 -120.632274 214 184ft 0kts
08-Sep-18 09:33 35.233247 -120.632274 214 184ft 0kts
08-Sep-18 09:34 35.235267 -120.637194 305 202ft 68kts
08-Sep-18 09:35 35.245684 -120.657159 299 875ft 67kts
08-Sep-18 09:36 35.237602 -120.669643 140 1473ft 80kts
08-Sep-18 09:37 35.226049 -120.647183 119 2061ft 79kts
08-Sep-18 09:38 35.214863 -120.624461 123 2631ft 78kts
08-Sep-18 09:39 35.200334 -120.605112 134 3161ft 78kts
08-Sep-18 09:40 35.185346 -120.585679 139 3680ft 78kts
08-Sep-18 09:41 35.170253 -120.566886 136 4173ft 79kts
08-Sep-18 09:42 35.152602 -120.550831 144 4655ft 80kts
08-Sep-18 09:43 35.135771 -120.533173 135 5129ft 79kts
08-Sep-18 09:44 35.119557 -120.513706 142 5519ft 88kts
08-Sep-18 09:45 35.096186 -120.493978 147 5589ft 113kts
08-Sep-18 09:46 35.068541 -120.472954 149 5581ft 120kts
08-Sep-18 09:47 35.039165 -120.453430 154 5559ft 120kts
08-Sep-18 09:48 35.008842 -120.436603 149 5548ft 119kts
08-Sep-18 09:49 34.980551 -120.415782 150 5539ft 119kts
08-Sep-18 09:50 34.952732 -120.394360 139 5538ft 118kts
08-Sep-18 09:51 34.927526 -120.368676 139 5536ft 118kts
08-Sep-18 09:52 34.902595 -120.345305 144 5534ft 117kts
08-Sep-18 09:53 34.877007 -120.321545 140 5529ft 117kts
08-Sep-18 09:54 34.850147 -120.299555 158 5517ft 117kts
08-Sep-18 09:55 34.819739 -120.286477 162 5519ft 117kts
08-Sep-18 09:56 34.789044 -120.273634 158 5528ft 117kts
08-Sep-18 09:57 34.760501 -120.256087 150 5520ft 117kts
08-Sep-18 09:58 34.732895 -120.235127 150 5505ft 118kts
08-Sep-18 09:59 34.705705 -120.219008 153 5505ft 117kts
08-Sep-18 10:04 35.238922 -120.639406 180 184ft 0kts
08-Sep-18 10:11 34.623525 -120.197346 140 5715ft 119kts
08-Sep-18 10:12 34.597706 -120.171965 140 5625ft 126kts
08-Sep-18 10:13 34.572013 -120.142654 128 5478ft 127kts
08-Sep-18 10:14 34.548544 -120.114450 138 5720ft 104kts
08-Sep-18 10:15 34.530327 -120.093407 103 6199ft 84kts
08-Sep-18 10:16 34.527499 -120.068167 94 6674ft 72kts
08-Sep-18 10:17 34.525537 -120.047051 97 7114ft 56kts
08-Sep-18 10:18 34.521247 -120.026351 97 7367ft 66kts
08-Sep-18 10:19 34.517747 -120.002138 96 7572ft 88kts
08-Sep-18 10:20 34.514389 -119.968285 95 7559ft 109kts
08-Sep-18 10:21 34.510718 -119.933543 89 7618ft 113kts
08-Sep-18 10:22 34.510599 -119.895479 88 7541ft 112kts
08-Sep-18 10:23 34.509398 -119.857847 92 7558ft 114kts
08-Sep-18 10:24 34.507511 -119.819852 92 7572ft 115kts
08-Sep-18 10:25 34.505793 -119.783297 88 7596ft 114kts
08-Sep-18 10:26 34.497776 -119.747679 124 7585ft 117kts
08-Sep-18 10:27 34.483277 -119.714885 115 7599ft 116kts
08-Sep-18 10:28 34.468912 -119.682469 113 7597ft 116kts
08-Sep-18 10:29 34.455597 -119.649838 121 7597ft 116kts
08-Sep-18 10:30 34.441241 -119.617195 113 7597ft 116kts
08-Sep-18 10:31 34.427790 -119.583784 115 7597ft 116kts
08-Sep-18 10:32 34.413301 -119.550166 116 7597ft 116kts
08-Sep-18 10:33 34.401859 -119.523921 116 7598ft 118kts
08-Sep-18 10:34 34.386440 -119.488630 116 7598ft 119kts
08-Sep-18 10:35 34.368890 -119.454288 125 7047ft 119kts
08-Sep-18 10:36 34.353772 -119.419448 113 6601ft 117kts
08-Sep-18 10:37 34.343010 -119.382630 106 6181ft 115kts
08-Sep-18 10:38 34.331721 -119.347234 112 5792ft 115kts
08-Sep-18 10:39 34.321369 -119.315500 118 5490ft 120kts
08-Sep-18 10:40 34.304596 -119.281170 122 5107ft 117kts
08-Sep-18 10:41 34.288021 -119.247421 120 4657ft 116kts
08-Sep-18 10:42 34.272281 -119.213255 116 4228ft 115kts
08-Sep-18 10:43 34.257361 -119.179198 119 3497ft 117kts
08-Sep-18 10:44 34.241292 -119.146473 124 2772ft 108kts
08-Sep-18 10:45 34.225108 -119.114711 100 1205ft 111kts
08-Sep-18 10:46 34.222340 -119.078089 84 777ft 91kts
08-Sep-18 10:47 34.213436 -119.069289 273 317ft 75kts
08-Sep-18 10:48 34.213711 -119.089942 272 76ft 38kts
08-Sep-18 10:49 34.212963 -119.095586 202 76ft 0kts
08-Sep-18 10:50 34.211564 -119.095218 198 76ft 10kts
08-Sep-18 10:51 34.210692 -119.092775 176 76ft 0kts
08-Sep-18 10:52 34.210692 -119.092775 176 76ft 0kts

Navigation Log

Ident Type
Flight plan parsing failed, navigation log unavailable